sensor_id;sensor_type;location;lat;lon;timestamp;pressure;altitude;pressure_sealevel;temperature;humidity
63306;BME280;50735;52.060;1.248;2024-02-16T00:01:00;100332.39;;;9.43;64.26
63306;BME280;50735;52.060;1.248;2024-02-16T00:03:32;100325.77;;;9.45;63.99
63306;BME280;50735;52.060;1.248;2024-02-16T00:06:04;100327.58;;;9.26;63.83
63306;BME280;50735;52.060;1.248;2024-02-16T00:08:37;100326.19;;;9.42;63.92
63306;BME280;50735;52.060;1.248;2024-02-16T00:11:08;100325.40;;;9.43;63.91
63306;BME280;50735;52.060;1.248;2024-02-16T00:13:40;100323.52;;;9.40;63.72
63306;BME280;50735;52.060;1.248;2024-02-16T00:16:12;100321.51;;;9.37;63.89
63306;BME280;50735;52.060;1.248;2024-02-16T00:18:44;100319.26;;;9.13;63.76
63306;BME280;50735;52.060;1.248;2024-02-16T00:21:16;100317.21;;;9.46;63.95
63306;BME280;50735;52.060;1.248;2024-02-16T00:23:47;100314.45;;;9.42;64.15
63306;BME280;50735;52.060;1.248;2024-02-16T00:26:19;100309.93;;;9.48;64.11
63306;BME280;50735;52.060;1.248;2024-02-16T00:28:52;100311.73;;;9.50;63.76
63306;BME280;50735;52.060;1.248;2024-02-16T00:31:24;100316.14;;;9.50;63.76
63306;BME280;50735;52.060;1.248;2024-02-16T00:33:55;100320.75;;;9.33;63.78
63306;BME280;50735;52.060;1.248;2024-02-16T00:36:27;100318.13;;;9.53;63.68
63306;BME280;50735;52.060;1.248;2024-02-16T00:38:59;100319.50;;;9.54;63.49
63306;BME280;50735;52.060;1.248;2024-02-16T00:41:30;100318.46;;;9.33;63.55
63306;BME280;50735;52.060;1.248;2024-02-16T00:44:02;100323.46;;;9.47;63.76
63306;BME280;50735;52.060;1.248;2024-02-16T00:46:35;100327.27;;;9.30;63.72
63306;BME280;50735;52.060;1.248;2024-02-16T00:49:08;100323.08;;;9.28;63.70
63306;BME280;50735;52.060;1.248;2024-02-16T00:51:40;100314.98;;;9.44;63.74
63306;BME280;50735;52.060;1.248;2024-02-16T00:54:12;100315.94;;;9.41;63.89
63306;BME280;50735;52.060;1.248;2024-02-16T00:56:44;100311.63;;;9.41;64.00
63306;BME280;50735;52.060;1.248;2024-02-16T00:59:16;100306.56;;;9.43;63.82
63306;BME280;50735;52.060;1.248;2024-02-16T01:01:48;100306.07;;;9.44;63.81
63306;BME280;50735;52.060;1.248;2024-02-16T01:04:19;100306.44;;;9.43;63.81
63306;BME280;50735;52.060;1.248;2024-02-16T01:06:51;100312.83;;;9.44;63.92
63306;BME280;50735;52.060;1.248;2024-02-16T01:09:23;100319.09;;;9.42;63.64
63306;BME280;50735;52.060;1.248;2024-02-16T01:11:54;100325.82;;;9.34;63.82
63306;BME280;50735;52.060;1.248;2024-02-16T01:14:27;100327.04;;;9.29;63.94
63306;BME280;50735;52.060;1.248;2024-02-16T01:16:58;100324.74;;;9.04;64.05
63306;BME280;50735;52.060;1.248;2024-02-16T01:19:30;100320.61;;;9.04;64.02
63306;BME280;50735;52.060;1.248;2024-02-16T01:22:02;100314.47;;;9.20;64.16
63306;BME280;50735;52.060;1.248;2024-02-16T01:24:34;100315.19;;;9.41;64.21
63306;BME280;50735;52.060;1.248;2024-02-16T01:27:06;100319.83;;;9.18;64.25
63306;BME280;50735;52.060;1.248;2024-02-16T01:29:37;100309.35;;;9.00;64.37
63306;BME280;50735;52.060;1.248;2024-02-16T01:32:09;100312.60;;;9.15;64.29
63306;BME280;50735;52.060;1.248;2024-02-16T01:34:41;100312.17;;;9.20;64.37
63306;BME280;50735;52.060;1.248;2024-02-16T01:37:13;100307.31;;;9.24;64.32
63306;BME280;50735;52.060;1.248;2024-02-16T01:39:45;100311.36;;;9.30;64.19
63306;BME280;50735;52.060;1.248;2024-02-16T01:42:16;100309.33;;;9.17;63.95
63306;BME280;50735;52.060;1.248;2024-02-16T01:44:48;100317.53;;;9.39;63.90
63306;BME280;50735;52.060;1.248;2024-02-16T01:47:20;100317.42;;;9.41;64.07
63306;BME280;50735;52.060;1.248;2024-02-16T01:49:52;100318.02;;;9.44;63.89
63306;BME280;50735;52.060;1.248;2024-02-16T01:52:23;100322.07;;;9.44;63.88
63306;BME280;50735;52.060;1.248;2024-02-16T01:54:55;100323.79;;;9.42;63.92
63306;BME280;50735;52.060;1.248;2024-02-16T01:57:27;100319.62;;;9.35;63.96
63306;BME280;50735;52.060;1.248;2024-02-16T01:59:59;100321.92;;;9.31;64.01
63306;BME280;50735;52.060;1.248;2024-02-16T02:02:30;100321.62;;;9.12;64.10
63306;BME280;50735;52.060;1.248;2024-02-16T02:05:03;100324.82;;;9.25;64.16
63306;BME280;50735;52.060;1.248;2024-02-16T02:07:36;100327.83;;;9.23;64.25
63306;BME280;50735;52.060;1.248;2024-02-16T02:10:08;100332.32;;;9.19;64.18
63306;BME280;50735;52.060;1.248;2024-02-16T02:12:41;100323.05;;;8.98;64.41
63306;BME280;50735;52.060;1.248;2024-02-16T02:15:12;100322.87;;;9.19;64.40
63306;BME280;50735;52.060;1.248;2024-02-16T02:17:44;100324.82;;;9.18;64.47
63306;BME280;50735;52.060;1.248;2024-02-16T02:20:16;100315.12;;;9.08;64.44
63306;BME280;50735;52.060;1.248;2024-02-16T02:22:48;100315.58;;;9.02;65.11
63306;BME280;50735;52.060;1.248;2024-02-16T02:25:21;100310.48;;;9.01;65.01
63306;BME280;50735;52.060;1.248;2024-02-16T02:27:52;100311.03;;;9.07;65.04
63306;BME280;50735;52.060;1.248;2024-02-16T02:30:24;100313.78;;;9.08;65.01
63306;BME280;50735;52.060;1.248;2024-02-16T02:32:56;100313.93;;;9.16;64.90
63306;BME280;50735;52.060;1.248;2024-02-16T02:35:28;100311.96;;;9.19;64.55
63306;BME280;50735;52.060;1.248;2024-02-16T02:37:59;100318.08;;;9.19;64.72
63306;BME280;50735;52.060;1.248;2024-02-16T02:40:31;100319.38;;;9.25;64.49
63306;BME280;50735;52.060;1.248;2024-02-16T02:43:03;100322.81;;;9.29;64.56
63306;BME280;50735;52.060;1.248;2024-02-16T02:45:35;100321.48;;;9.14;64.56
63306;BME280;50735;52.060;1.248;2024-02-16T02:48:07;100319.52;;;9.17;64.58
63306;BME280;50735;52.060;1.248;2024-02-16T02:50:39;100329.54;;;9.32;64.48
63306;BME280;50735;52.060;1.248;2024-02-16T02:53:11;100330.78;;;8.89;64.64
63306;BME280;50735;52.060;1.248;2024-02-16T02:55:43;100321.58;;;9.11;64.79
63306;BME280;50735;52.060;1.248;2024-02-16T02:58:15;100315.53;;;9.27;64.71
63306;BME280;50735;52.060;1.248;2024-02-16T03:00:47;100310.73;;;9.27;64.82
63306;BME280;50735;52.060;1.248;2024-02-16T03:03:19;100312.90;;;9.31;64.85
63306;BME280;50735;52.060;1.248;2024-02-16T03:05:51;100323.01;;;9.28;65.03
63306;BME280;50735;52.060;1.248;2024-02-16T03:08:23;100330.23;;;9.06;65.11
63306;BME280;50735;52.060;1.248;2024-02-16T03:10:55;100326.43;;;9.22;65.22
63306;BME280;50735;52.060;1.248;2024-02-16T03:13:27;100328.26;;;9.18;65.24
63306;BME280;50735;52.060;1.248;2024-02-16T03:15:59;100333.62;;;9.21;65.31
63306;BME280;50735;52.060;1.248;2024-02-16T03:18:32;100336.59;;;9.27;65.12
63306;BME280;50735;52.060;1.248;2024-02-16T03:21:04;100338.29;;;9.07;65.22
63306;BME280;50735;52.060;1.248;2024-02-16T03:23:36;100333.05;;;9.22;65.57
63306;BME280;50735;52.060;1.248;2024-02-16T03:26:13;100333.99;;;9.01;65.54
63306;BME280;50735;52.060;1.248;2024-02-16T03:28:45;100333.47;;;9.00;65.73
63306;BME280;50735;52.060;1.248;2024-02-16T03:31:19;100328.49;;;9.02;65.58
63306;BME280;50735;52.060;1.248;2024-02-16T03:33:52;100329.80;;;9.27;65.51
63306;BME280;50735;52.060;1.248;2024-02-16T03:36:24;100330.51;;;9.29;65.48
63306;BME280;50735;52.060;1.248;2024-02-16T03:38:55;100333.57;;;9.27;65.64
63306;BME280;50735;52.060;1.248;2024-02-16T03:41:27;100337.39;;;9.23;65.83
63306;BME280;50735;52.060;1.248;2024-02-16T03:44:00;100342.01;;;9.25;65.70
63306;BME280;50735;52.060;1.248;2024-02-16T03:46:32;100342.85;;;9.21;65.77
63306;BME280;50735;52.060;1.248;2024-02-16T03:49:04;100343.29;;;9.25;65.68
63306;BME280;50735;52.060;1.248;2024-02-16T03:51:36;100349.05;;;8.90;66.42
63306;BME280;50735;52.060;1.248;2024-02-16T03:54:08;100355.25;;;9.01;66.68
63306;BME280;50735;52.060;1.248;2024-02-16T03:56:40;100356.87;;;8.84;66.83
63306;BME280;50735;52.060;1.248;2024-02-16T03:59:12;100360.14;;;9.03;66.91
63306;BME280;50735;52.060;1.248;2024-02-16T04:01:44;100363.54;;;8.91;66.68
63306;BME280;50735;52.060;1.248;2024-02-16T04:04:15;100363.12;;;8.99;66.38
63306;BME280;50735;52.060;1.248;2024-02-16T04:06:47;100365.75;;;9.01;66.58
63306;BME280;50735;52.060;1.248;2024-02-16T04:09:19;100370.20;;;9.19;66.51
63306;BME280;50735;52.060;1.248;2024-02-16T04:11:51;100381.56;;;9.24;66.50
63306;BME280;50735;52.060;1.248;2024-02-16T04:14:23;100380.54;;;9.07;66.45
63306;BME280;50735;52.060;1.248;2024-02-16T04:16:55;100384.23;;;9.02;66.87
63306;BME280;50735;52.060;1.248;2024-02-16T04:19:27;100383.49;;;9.12;67.33
63306;BME280;50735;52.060;1.248;2024-02-16T04:21:59;100386.81;;;9.07;67.67
63306;BME280;50735;52.060;1.248;2024-02-16T04:24:31;100395.39;;;9.12;67.67
63306;BME280;50735;52.060;1.248;2024-02-16T04:27:02;100398.23;;;8.95;67.72
63306;BME280;50735;52.060;1.248;2024-02-16T04:29:34;100397.59;;;9.16;67.70
63306;BME280;50735;52.060;1.248;2024-02-16T04:32:06;100406.72;;;9.15;67.96
63306;BME280;50735;52.060;1.248;2024-02-16T04:34:38;100412.21;;;9.14;68.00
63306;BME280;50735;52.060;1.248;2024-02-16T04:37:10;100408.54;;;8.97;67.98
63306;BME280;50735;52.060;1.248;2024-02-16T04:39:42;100412.91;;;9.18;67.94
63306;BME280;50735;52.060;1.248;2024-02-16T04:42:14;100419.78;;;9.12;68.52
63306;BME280;50735;52.060;1.248;2024-02-16T04:44:46;100424.18;;;8.69;68.76
63306;BME280;50735;52.060;1.248;2024-02-16T04:47:18;100429.01;;;9.02;68.72
63306;BME280;50735;52.060;1.248;2024-02-16T04:49:49;100433.27;;;8.98;69.15
63306;BME280;50735;52.060;1.248;2024-02-16T04:52:21;100442.68;;;8.83;68.93
63306;BME280;50735;52.060;1.248;2024-02-16T04:54:53;100449.47;;;8.62;69.32
63306;BME280;50735;52.060;1.248;2024-02-16T04:57:24;100457.45;;;8.72;69.52
63306;BME280;50735;52.060;1.248;2024-02-16T04:59:56;100463.14;;;8.97;69.40
63306;BME280;50735;52.060;1.248;2024-02-16T05:02:28;100461.54;;;8.84;69.35
63306;BME280;50735;52.060;1.248;2024-02-16T05:05:00;100465.88;;;9.06;69.09
63306;BME280;50735;52.060;1.248;2024-02-16T05:07:32;100465.30;;;9.12;69.19
63306;BME280;50735;52.060;1.248;2024-02-16T05:10:08;100474.02;;;9.00;69.80
63306;BME280;50735;52.060;1.248;2024-02-16T05:12:41;100486.72;;;8.94;70.07
63306;BME280;50735;52.060;1.248;2024-02-16T05:15:12;100494.09;;;8.57;70.99
63306;BME280;50735;52.060;1.248;2024-02-16T05:17:47;100494.12;;;8.84;70.74
63306;BME280;50735;52.060;1.248;2024-02-16T05:20:19;100493.12;;;8.82;70.93
63306;BME280;50735;52.060;1.248;2024-02-16T05:22:51;100504.52;;;8.73;71.56
63306;BME280;50735;52.060;1.248;2024-02-16T05:25:22;100506.91;;;8.71;71.78
63306;BME280;50735;52.060;1.248;2024-02-16T05:27:54;100511.78;;;8.73;72.05
63306;BME280;50735;52.060;1.248;2024-02-16T05:30:26;100516.03;;;8.55;72.37
63306;BME280;50735;52.060;1.248;2024-02-16T05:32:58;100524.40;;;8.84;71.93
63306;BME280;50735;52.060;1.248;2024-02-16T05:35:30;100527.50;;;8.78;72.27
63306;BME280;50735;52.060;1.248;2024-02-16T05:38:02;100528.33;;;8.72;72.07
63306;BME280;50735;52.060;1.248;2024-02-16T05:40:34;100527.43;;;8.89;72.46
63306;BME280;50735;52.060;1.248;2024-02-16T05:43:06;100526.06;;;9.02;71.77
63306;BME280;50735;52.060;1.248;2024-02-16T05:45:37;100526.77;;;9.11;71.39
63306;BME280;50735;52.060;1.248;2024-02-16T05:48:09;100532.36;;;9.19;71.32
63306;BME280;50735;52.060;1.248;2024-02-16T05:50:41;100537.39;;;9.25;70.98
63306;BME280;50735;52.060;1.248;2024-02-16T05:53:12;100547.87;;;9.22;71.09
63306;BME280;50735;52.060;1.248;2024-02-16T05:55:44;100554.57;;;8.96;71.41
63306;BME280;50735;52.060;1.248;2024-02-16T05:58:16;100554.87;;;8.95;71.26
63306;BME280;50735;52.060;1.248;2024-02-16T06:00:48;100553.27;;;8.85;71.69
63306;BME280;50735;52.060;1.248;2024-02-16T06:03:20;100559.23;;;8.95;71.93
63306;BME280;50735;52.060;1.248;2024-02-16T06:05:52;100562.30;;;8.96;71.95
63306;BME280;50735;52.060;1.248;2024-02-16T06:08:24;100564.22;;;9.02;71.80
63306;BME280;50735;52.060;1.248;2024-02-16T06:10:55;100559.93;;;9.09;71.70
63306;BME280;50735;52.060;1.248;2024-02-16T06:13:27;100555.16;;;9.22;71.58
63306;BME280;50735;52.060;1.248;2024-02-16T06:15:59;100557.70;;;9.32;71.32
63306;BME280;50735;52.060;1.248;2024-02-16T06:18:31;100562.63;;;9.41;71.08
63306;BME280;50735;52.060;1.248;2024-02-16T06:21:03;100564.55;;;9.45;70.80
63306;BME280;50735;52.060;1.248;2024-02-16T06:23:35;100563.65;;;9.41;70.01
63306;BME280;50735;52.060;1.248;2024-02-16T06:26:07;100569.75;;;9.41;70.21
63306;BME280;50735;52.060;1.248;2024-02-16T06:28:39;100566.26;;;9.42;70.48
63306;BME280;50735;52.060;1.248;2024-02-16T06:31:11;100566.78;;;9.25;70.43
63306;BME280;50735;52.060;1.248;2024-02-16T06:33:44;100557.64;;;9.50;70.32
63306;BME280;50735;52.060;1.248;2024-02-16T06:36:17;100550.80;;;9.48;69.94
63306;BME280;50735;52.060;1.248;2024-02-16T06:38:49;100551.89;;;9.50;70.16
63306;BME280;50735;52.060;1.248;2024-02-16T06:41:20;100557.50;;;9.54;69.91
63306;BME280;50735;52.060;1.248;2024-02-16T06:43:52;100571.90;;;9.60;69.97
63306;BME280;50735;52.060;1.248;2024-02-16T06:46:24;100580.08;;;9.55;69.21
63306;BME280;50735;52.060;1.248;2024-02-16T06:48:56;100590.28;;;9.30;69.82
63306;BME280;50735;52.060;1.248;2024-02-16T06:51:28;100618.04;;;9.38;69.75
63306;BME280;50735;52.060;1.248;2024-02-16T06:53:59;100632.43;;;8.91;70.85
63306;BME280;50735;52.060;1.248;2024-02-16T06:56:31;100628.19;;;8.95;70.64
63306;BME280;50735;52.060;1.248;2024-02-16T06:59:03;100635.09;;;9.15;70.70
63306;BME280;50735;52.060;1.248;2024-02-16T07:01:35;100648.14;;;9.06;70.77
63306;BME280;50735;52.060;1.248;2024-02-16T07:04:07;100667.49;;;9.06;70.84
63306;BME280;50735;52.060;1.248;2024-02-16T07:06:38;100679.91;;;9.15;71.07
63306;BME280;50735;52.060;1.248;2024-02-16T07:09:10;100694.59;;;8.51;71.86
63306;BME280;50735;52.060;1.248;2024-02-16T07:11:43;100686.84;;;8.66;72.03
63306;BME280;50735;52.060;1.248;2024-02-16T07:14:14;100700.89;;;8.63;73.39
63306;BME280;50735;52.060;1.248;2024-02-16T07:16:46;100704.67;;;8.47;72.54
63306;BME280;50735;52.060;1.248;2024-02-16T07:19:18;100713.88;;;8.50;72.65
63306;BME280;50735;52.060;1.248;2024-02-16T07:21:50;100718.14;;;8.46;72.63
63306;BME280;50735;52.060;1.248;2024-02-16T07:24:22;100722.28;;;8.50;72.51
63306;BME280;50735;52.060;1.248;2024-02-16T07:26:54;100720.74;;;9.00;72.26
63306;BME280;50735;52.060;1.248;2024-02-16T07:29:26;100728.60;;;8.62;71.91
63306;BME280;50735;52.060;1.248;2024-02-16T07:31:58;100734.77;;;8.72;71.66
63306;BME280;50735;52.060;1.248;2024-02-16T07:34:29;100744.71;;;8.98;71.56
63306;BME280;50735;52.060;1.248;2024-02-16T07:37:01;100754.48;;;8.72;71.01
63306;BME280;50735;52.060;1.248;2024-02-16T07:39:33;100764.69;;;8.95;71.16
63306;BME280;50735;52.060;1.248;2024-02-16T07:42:05;100769.99;;;8.63;71.50
63306;BME280;50735;52.060;1.248;2024-02-16T07:44:37;100773.90;;;8.50;71.23
63306;BME280;50735;52.060;1.248;2024-02-16T07:47:09;100772.67;;;8.62;72.13
63306;BME280;50735;52.060;1.248;2024-02-16T07:49:41;100773.42;;;8.58;72.00
63306;BME280;50735;52.060;1.248;2024-02-16T07:52:12;100773.88;;;8.68;72.11
63306;BME280;50735;52.060;1.248;2024-02-16T07:54:44;100771.25;;;8.60;71.62
63306;BME280;50735;52.060;1.248;2024-02-16T07:57:16;100772.16;;;8.88;71.35
63306;BME280;50735;52.060;1.248;2024-02-16T07:59:48;100775.28;;;8.71;71.16
63306;BME280;50735;52.060;1.248;2024-02-16T08:02:20;100777.37;;;8.56;70.70
63306;BME280;50735;52.060;1.248;2024-02-16T08:04:52;100781.51;;;9.02;70.49
63306;BME280;50735;52.060;1.248;2024-02-16T08:07:23;100788.45;;;8.85;70.32
63306;BME280;50735;52.060;1.248;2024-02-16T08:09:55;100795.75;;;8.90;70.08
63306;BME280;50735;52.060;1.248;2024-02-16T08:12:27;100802.71;;;8.92;70.10
63306;BME280;50735;52.060;1.248;2024-02-16T08:14:59;100810.56;;;8.93;69.71
63306;BME280;50735;52.060;1.248;2024-02-16T08:17:30;100812.48;;;8.92;69.36
63306;BME280;50735;52.060;1.248;2024-02-16T08:20:03;100815.06;;;8.78;70.34
63306;BME280;50735;52.060;1.248;2024-02-16T08:22:35;100823.16;;;8.80;70.40
63306;BME280;50735;52.060;1.248;2024-02-16T08:25:07;100824.77;;;8.57;71.02
63306;BME280;50735;52.060;1.248;2024-02-16T08:27:39;100829.66;;;8.58;70.89
63306;BME280;50735;52.060;1.248;2024-02-16T08:30:12;100834.80;;;8.54;70.98
63306;BME280;50735;52.060;1.248;2024-02-16T08:32:43;100840.68;;;8.78;70.82
63306;BME280;50735;52.060;1.248;2024-02-16T08:35:15;100847.21;;;8.47;71.91
63306;BME280;50735;52.060;1.248;2024-02-16T08:37:47;100857.58;;;8.56;71.83
63306;BME280;50735;52.060;1.248;2024-02-16T08:40:19;100862.70;;;8.24;72.44
63306;BME280;50735;52.060;1.248;2024-02-16T08:42:51;100869.02;;;8.23;72.13
63306;BME280;50735;52.060;1.248;2024-02-16T08:45:23;100873.55;;;8.33;71.78
63306;BME280;50735;52.060;1.248;2024-02-16T08:47:54;100878.89;;;8.36;72.13
63306;BME280;50735;52.060;1.248;2024-02-16T08:50:26;100880.21;;;8.68;71.70
63306;BME280;50735;52.060;1.248;2024-02-16T08:52:58;100884.63;;;8.60;71.66
63306;BME280;50735;52.060;1.248;2024-02-16T08:55:30;100893.50;;;8.46;72.37
63306;BME280;50735;52.060;1.248;2024-02-16T08:58:02;100900.27;;;8.25;72.22
63306;BME280;50735;52.060;1.248;2024-02-16T09:00:33;100904.71;;;8.25;72.48
63306;BME280;50735;52.060;1.248;2024-02-16T09:03:05;100911.46;;;8.16;72.50
63306;BME280;50735;52.060;1.248;2024-02-16T09:05:37;100915.83;;;7.84;72.76
63306;BME280;50735;52.060;1.248;2024-02-16T09:08:08;100921.81;;;7.96;72.99
63306;BME280;50735;52.060;1.248;2024-02-16T09:10:40;100931.35;;;8.17;73.11
63306;BME280;50735;52.060;1.248;2024-02-16T09:13:12;100935.21;;;7.92;73.52
63306;BME280;50735;52.060;1.248;2024-02-16T09:15:44;100938.05;;;7.94;73.56
63306;BME280;50735;52.060;1.248;2024-02-16T09:18:16;100941.83;;;8.24;72.93
63306;BME280;50735;52.060;1.248;2024-02-16T09:20:47;100946.40;;;8.22;72.49
63306;BME280;50735;52.060;1.248;2024-02-16T09:23:19;100946.93;;;8.52;71.53
63306;BME280;50735;52.060;1.248;2024-02-16T09:25:51;100950.27;;;8.52;69.39
63306;BME280;50735;52.060;1.248;2024-02-16T09:28:23;100955.67;;;9.50;68.54
63306;BME280;50735;52.060;1.248;2024-02-16T09:30:55;100959.77;;;9.64;67.62
63306;BME280;50735;52.060;1.248;2024-02-16T09:33:27;100961.21;;;9.48;66.55
63306;BME280;50735;52.060;1.248;2024-02-16T09:35:59;100972.94;;;9.61;66.51
63306;BME280;50735;52.060;1.248;2024-02-16T09:38:31;100983.63;;;9.27;66.56
63306;BME280;50735;52.060;1.248;2024-02-16T09:41:03;100988.44;;;9.33;66.77
63306;BME280;50735;52.060;1.248;2024-02-16T09:43:35;100989.76;;;9.63;66.13
63306;BME280;50735;52.060;1.248;2024-02-16T09:46:08;101004.15;;;9.21;66.07
63306;BME280;50735;52.060;1.248;2024-02-16T09:48:40;101014.79;;;8.85;67.22
63306;BME280;50735;52.060;1.248;2024-02-16T09:51:13;101011.01;;;8.80;68.11
63306;BME280;50735;52.060;1.248;2024-02-16T09:53:50;101013.97;;;8.54;68.79
63306;BME280;50735;52.060;1.248;2024-02-16T09:56:23;101014.43;;;9.33;67.14
63306;BME280;50735;52.060;1.248;2024-02-16T09:58:55;101014.39;;;9.82;64.58
63306;BME280;50735;52.060;1.248;2024-02-16T10:01:27;101018.96;;;9.78;63.40
63306;BME280;50735;52.060;1.248;2024-02-16T10:04:05;101025.20;;;10.50;62.05
63306;BME280;50735;52.060;1.248;2024-02-16T10:06:46;101030.91;;;10.25;61.56
63306;BME280;50735;52.060;1.248;2024-02-16T10:09:26;101033.49;;;10.73;60.77
63306;BME280;50735;52.060;1.248;2024-02-16T10:11:59;101036.12;;;10.95;59.68
63306;BME280;50735;52.060;1.248;2024-02-16T10:14:32;101038.45;;;11.37;58.27
63306;BME280;50735;52.060;1.248;2024-02-16T10:17:06;101044.75;;;11.38;56.71
63306;BME280;50735;52.060;1.248;2024-02-16T10:19:38;101041.93;;;11.59;56.44
63306;BME280;50735;52.060;1.248;2024-02-16T10:22:10;101045.02;;;11.52;55.14
63306;BME280;50735;52.060;1.248;2024-02-16T10:24:42;101048.16;;;11.89;54.61
63306;BME280;50735;52.060;1.248;2024-02-16T10:27:14;101052.73;;;12.15;54.24
63306;BME280;50735;52.060;1.248;2024-02-16T10:29:47;101060.34;;;11.76;54.54
63306;BME280;50735;52.060;1.248;2024-02-16T10:32:19;101059.51;;;11.90;53.95
63306;BME280;50735;52.060;1.248;2024-02-16T10:34:53;101060.78;;;12.38;53.85
63306;BME280;50735;52.060;1.248;2024-02-16T10:37:25;101061.75;;;13.14;51.77
63306;BME280;50735;52.060;1.248;2024-02-16T10:39:59;101064.32;;;13.27;51.43
63306;BME280;50735;52.060;1.248;2024-02-16T10:42:34;101067.28;;;13.30;51.06
63306;BME280;50735;52.060;1.248;2024-02-16T10:45:09;101071.48;;;13.90;50.66
63306;BME280;50735;52.060;1.248;2024-02-16T10:47:42;101076.96;;;14.04;49.02
63306;BME280;50735;52.060;1.248;2024-02-16T10:50:14;101076.92;;;14.00;48.43
63306;BME280;50735;52.060;1.248;2024-02-16T10:52:46;101077.43;;;13.93;49.19
63306;BME280;50735;52.060;1.248;2024-02-16T10:55:19;101082.13;;;14.04;48.16
63306;BME280;50735;52.060;1.248;2024-02-16T10:57:51;101088.62;;;14.15;48.29
63306;BME280;50735;52.060;1.248;2024-02-16T11:00:23;101096.28;;;14.24;48.34
63306;BME280;50735;52.060;1.248;2024-02-16T11:02:55;101099.42;;;13.87;48.52
63306;BME280;50735;52.060;1.248;2024-02-16T11:05:36;101104.13;;;14.20;49.01
63306;BME280;50735;52.060;1.248;2024-02-16T11:08:12;101106.69;;;14.52;48.34
63306;BME280;50735;52.060;1.248;2024-02-16T11:11:01;101115.58;;;13.93;47.67
63306;BME280;50735;52.060;1.248;2024-02-16T11:13:35;101115.53;;;14.09;47.76
63306;BME280;50735;52.060;1.248;2024-02-16T11:16:08;101123.70;;;13.76;48.24
63306;BME280;50735;52.060;1.248;2024-02-16T11:18:42;101125.45;;;13.52;49.28
63306;BME280;50735;52.060;1.248;2024-02-16T11:21:15;101133.23;;;13.29;49.55
63306;BME280;50735;52.060;1.248;2024-02-16T11:23:47;101136.17;;;13.25;49.40
63306;BME280;50735;52.060;1.248;2024-02-16T11:26:18;101145.04;;;12.82;49.48
63306;BME280;50735;52.060;1.248;2024-02-16T11:28:51;101140.39;;;13.45;48.68
63306;BME280;50735;52.060;1.248;2024-02-16T11:31:23;101146.93;;;13.82;47.79
63306;BME280;50735;52.060;1.248;2024-02-16T11:33:55;101149.58;;;13.64;48.81
63306;BME280;50735;52.060;1.248;2024-02-16T11:36:27;101155.38;;;12.98;50.49
63306;BME280;50735;52.060;1.248;2024-02-16T11:38:59;101156.47;;;12.90;50.75
63306;BME280;50735;52.060;1.248;2024-02-16T11:41:31;101161.21;;;13.00;50.98
63306;BME280;50735;52.060;1.248;2024-02-16T11:44:02;101161.14;;;12.45;51.19
63306;BME280;50735;52.060;1.248;2024-02-16T11:46:34;101162.61;;;11.90;52.01
63306;BME280;50735;52.060;1.248;2024-02-16T11:49:07;101170.22;;;11.83;53.68
63306;BME280;50735;52.060;1.248;2024-02-16T11:51:39;101174.03;;;11.75;53.51
63306;BME280;50735;52.060;1.248;2024-02-16T11:54:11;101175.01;;;11.19;54.46
63306;BME280;50735;52.060;1.248;2024-02-16T11:56:43;101176.91;;;11.36;55.91
63306;BME280;50735;52.060;1.248;2024-02-16T11:59:16;101175.21;;;11.47;54.58
63306;BME280;50735;52.060;1.248;2024-02-16T12:01:50;101174.19;;;11.62;54.37
63306;BME280;50735;52.060;1.248;2024-02-16T12:04:24;101177.86;;;11.00;55.02
63306;BME280;50735;52.060;1.248;2024-02-16T12:06:57;101182.37;;;11.21;56.00
63306;BME280;50735;52.060;1.248;2024-02-16T12:09:29;101182.00;;;11.77;55.07
63306;BME280;50735;52.060;1.248;2024-02-16T12:12:01;101184.25;;;11.72;53.58
63306;BME280;50735;52.060;1.248;2024-02-16T12:14:35;101183.95;;;11.99;52.84
63306;BME280;50735;52.060;1.248;2024-02-16T12:17:07;101180.15;;;12.18;52.76
63306;BME280;50735;52.060;1.248;2024-02-16T12:19:43;101188.43;;;12.01;53.01
63306;BME280;50735;52.060;1.248;2024-02-16T12:22:16;101191.86;;;12.20;51.74
63306;BME280;50735;52.060;1.248;2024-02-16T12:24:50;101193.92;;;12.48;51.40
63306;BME280;50735;52.060;1.248;2024-02-16T12:27:22;101199.98;;;12.28;51.11
63306;BME280;50735;52.060;1.248;2024-02-16T12:29:54;101196.92;;;12.67;51.28
63306;BME280;50735;52.060;1.248;2024-02-16T12:32:26;101206.68;;;12.50;50.60
63306;BME280;50735;52.060;1.248;2024-02-16T12:34:57;101197.99;;;12.16;51.64
63306;BME280;50735;52.060;1.248;2024-02-16T12:37:29;101202.81;;;12.02;53.64
63306;BME280;50735;52.060;1.248;2024-02-16T12:40:01;101210.52;;;11.54;53.14
63306;BME280;50735;52.060;1.248;2024-02-16T12:42:33;101210.03;;;11.34;53.46
63306;BME280;50735;52.060;1.248;2024-02-16T12:45:05;101213.57;;;11.38;53.80
63306;BME280;50735;52.060;1.248;2024-02-16T12:47:37;101216.45;;;11.27;54.29
63306;BME280;50735;52.060;1.248;2024-02-16T12:50:09;101221.01;;;11.18;53.93
63306;BME280;50735;52.060;1.248;2024-02-16T12:52:41;101222.98;;;11.04;54.72
63306;BME280;50735;52.060;1.248;2024-02-16T12:55:12;101227.44;;;11.28;55.15
63306;BME280;50735;52.060;1.248;2024-02-16T12:57:44;101223.94;;;11.23;54.62
63306;BME280;50735;52.060;1.248;2024-02-16T13:00:16;101224.25;;;11.36;54.22
63306;BME280;50735;52.060;1.248;2024-02-16T13:02:48;101221.65;;;11.81;53.40
63306;BME280;50735;52.060;1.248;2024-02-16T13:05:20;101224.60;;;12.43;52.04
63306;BME280;50735;52.060;1.248;2024-02-16T13:07:52;101230.11;;;12.16;51.06
63306;BME280;50735;52.060;1.248;2024-02-16T13:10:24;101240.05;;;12.08;51.31
63306;BME280;50735;52.060;1.248;2024-02-16T13:12:56;101244.76;;;11.91;51.96
63306;BME280;50735;52.060;1.248;2024-02-16T13:15:28;101252.08;;;11.97;50.90
63306;BME280;50735;52.060;1.248;2024-02-16T13:18:00;101257.95;;;11.87;50.85
63306;BME280;50735;52.060;1.248;2024-02-16T13:20:31;101262.69;;;11.22;51.65
63306;BME280;50735;52.060;1.248;2024-02-16T13:23:03;101261.35;;;10.67;52.80